Pagrindinis puslapis
METAR-TAF:

METAR-TAF

Oro uostai :

Sukhothai, Tailandas

platuma: 17-14-16N, ilguma: 099-49-05E, Aukštis: 55 m

Dabartinis oras

Ataskaita buvo paskelbta 1 valandą ir 8 minutes, ne 04:00 UTC
Vėjas 2 kt nuo kintamojo kryptimis
Temperatūra 29°C
Drėgmė 70%
Slėgis 1011 hPa
Matomumas: 5000 m
Mažai debesys ne aukštis 2500 ft
rūkana

METAR: VTPO 290400Z VRB02KT 5000 BR FEW025 29/23 Q1011 NOSIG

Laikas: 12:08 (05:08 UTC)

Prognozė

Ataskaita buvo paskelbta 6 valandos ir 8 minutes, ne 23:00 UTC
Prognozė galioja nuo 29 metu 00 UTC su 29 metu 24 UTC
Vėjas 5 kt iš Pietų/Pietryčių
Matomumas: 2000 m
rūkana
Tapsmas
nuo 29 metu 02 UTC su 29 metu 04 UTC
Matomumas: 6000 m
Mažai debesys ne aukštis 2500 ft

TAF: VTPO 282300Z 2900/2924 16005KT 2000 BR NSC BECMG 2902/2904 6000 NSW FEW025

Orai ataskaitas ir orų prognozės (METAR, TAF).

turimą stotys yra geltonos ir raudonos taškus žemėlapyje.

Perkelti pele per norėdami pamatyti stoties vardą.

Tada spustelėkite, norėdami matyti oro stebėjimo ir prognozės.

Norėdami pakeisti žemėlapį: spustelėkite ant žalios mygtukų su juodo kryžiaus žemyn,; žalią mygtuką su brūkšneliu, jei norite nutolinti; arba žalių rodyklių gretimoms žemėlapius.


METAR-TAF: